Terminal Aerodrome Forecast
Issued by NWS Dallas/Fort Worth, TX

Home | Current Version | Previous Version | Text Only | Print | Product List | Glossary On
Versions: 1 2 3 4 5 6 7 8 9 10 11 12 13 14 15 16 17 18 19 20 21 22 23 24 25 26 27 28 29 30 31 32
000
FTUS44 KFWD 230535
TAFDFW
TAF
KDFW 230535Z 2306/2412 16008KT P6SM SKC
     FM231700 18015G25KT P6SM SCT250
     FM240100 18008KT P6SM BKN250
     FM240800 25007KT P6SM FEW110 BKN250=

USA.gov is the U.S. government's official web portal to all federal, state and local government web resources and services.